createdAt,value
2022-08-27T05:34:27.141Z,100684.06
2022-08-27T05:39:30.009Z,100689.22
2022-08-27T05:44:41.406Z,100693.59
2022-08-27T05:49:45.548Z,100693.63
2022-08-27T05:54:48.126Z,100688.50
2022-08-27T06:00:08.969Z,100701.63
2022-08-27T06:05:18.225Z,100701.72
2022-08-27T06:10:20.733Z,100710.56
2022-08-27T06:15:23.101Z,100707.13
2022-08-27T06:20:25.488Z,100715.91
2022-08-27T06:25:27.811Z,100710.81
2022-08-27T06:30:30.164Z,100732.66
2022-08-27T06:35:35.069Z,100735.19
2022-08-27T06:40:42.031Z,100734.31
2022-08-27T06:45:44.436Z,100729.94
2022-08-27T06:50:46.986Z,100728.25
2022-08-27T06:55:49.719Z,100727.25
2022-08-27T07:00:52.228Z,100738.56
2022-08-27T07:05:54.542Z,100729.81
2022-08-27T07:10:57.672Z,100727.25
2022-08-27T07:16:08.354Z,100723.88
2022-08-27T07:21:10.998Z,100725.72
2022-08-27T07:26:15.293Z,100719.59
2022-08-27T07:31:20.343Z,100721.34
2022-08-27T07:36:22.971Z,100717.88
2022-08-27T07:41:25.638Z,100714.56
2022-08-27T07:46:37.946Z,100713.03
2022-08-27T07:51:41.900Z,100718.50
2022-08-27T07:56:55.033Z,100720.31
2022-08-27T08:01:58.263Z,100732.66
2022-08-27T08:07:00.585Z,100742.00
2022-08-27T08:12:03.582Z,100750.66
2022-08-27T08:17:10.083Z,100742.03
2022-08-27T08:22:12.878Z,100744.91
2022-08-27T08:27:16.023Z,100740.69
2022-08-27T08:32:18.421Z,100735.69
2022-08-27T08:37:20.892Z,100727.06
2022-08-27T08:42:29.121Z,100730.66
2022-08-27T08:47:50.553Z,100718.41
2022-08-27T08:52:59.378Z,100714.06
2022-08-27T08:58:16.735Z,100704.50
2022-08-27T09:03:19.132Z,100697.06
2022-08-27T09:08:40.519Z,100689.84
2022-08-27T09:13:51.601Z,100689.63
2022-08-27T09:18:54.909Z,100686.88
2022-08-27T09:24:08.451Z,100691.19
2022-08-27T09:29:20.302Z,100718.25
2022-08-27T09:34:24.286Z,100733.13
2022-08-27T09:39:36.174Z,100741.72
2022-08-27T09:44:52.881Z,100753.91
2022-08-27T09:50:06.842Z,100764.41
2022-08-27T09:55:10.169Z,100768.81
2022-08-27T10:00:17.990Z,100776.69
2022-08-27T10:05:32.324Z,100776.81
2022-08-27T10:10:59.800Z,100776.13
2022-08-27T10:16:40.291Z,100779.72
2022-08-27T10:22:01.599Z,100774.63
2022-08-27T10:27:17.556Z,100774.69
2022-08-27T10:32:57.661Z,100783.28
2022-08-27T10:38:15.374Z,100781.56
2022-08-27T10:43:17.953Z,100783.38
2022-08-27T10:48:34.419Z,100782.00
2022-08-27T10:53:50.304Z,100776.19
2022-08-27T10:59:19.198Z,100770.16
2022-08-27T11:04:25.748Z,100774.47
2022-08-27T11:09:46.128Z,100769.22
2022-08-27T11:14:54.406Z,100771.81
2022-08-27T11:20:04.545Z,100761.19
2022-08-27T11:25:12.948Z,100767.78
2022-08-27T11:30:29.493Z,100765.81
2022-08-27T11:35:55.246Z,100765.44
2022-08-27T11:41:10.389Z,100762.38
2022-08-27T11:46:25.763Z,100760.66
2022-08-27T11:51:39.819Z,100764.81
2022-08-27T11:56:43.436Z,100772.78
2022-08-27T12:01:45.786Z,100765.84
2022-08-27T12:07:00.098Z,100766.69
2022-08-27T12:12:21.870Z,100770.97
2022-08-27T12:17:49.617Z,100766.66
2022-08-27T12:23:28.802Z,100757.03
2022-08-27T12:28:31.181Z,100768.34
2022-08-27T12:33:43.473Z,100761.34
2022-08-27T12:38:50.531Z,100763.13
2022-08-27T12:44:09.804Z,100766.69
2022-08-27T12:49:38.448Z,100766.69
2022-08-27T12:54:55.582Z,100771.06
2022-08-27T13:00:14.813Z,100767.53
2022-08-27T13:05:22.596Z,100764.06
2022-08-27T13:10:29.153Z,100753.56
2022-08-27T13:15:34.165Z,100763.19
2022-08-27T13:20:38.722Z,100752.69
2022-08-27T13:25:41.307Z,100757.94
2022-08-27T13:30:46.424Z,100756.19
2022-08-27T13:35:49.013Z,100750.09
2022-08-27T13:41:01.270Z,100740.44
2022-08-27T13:46:12.017Z,100733.41
2022-08-27T13:51:15.694Z,100755.22
2022-08-27T13:56:31.751Z,100754.25
2022-08-27T14:01:34.167Z,100749.97
2022-08-27T14:06:41.338Z,100753.56
2022-08-27T14:11:45.406Z,100751.78
2022-08-27T14:16:57.639Z,100745.66
2022-08-27T14:22:00.612Z,100746.53
2022-08-27T14:27:08.789Z,100742.72
2022-08-27T14:32:11.189Z,100747.16
2022-08-27T14:37:14.744Z,100747.25
2022-08-27T14:42:17.695Z,100751.66
2022-08-27T14:47:20.235Z,100746.50
2022-08-27T14:52:23.015Z,100747.38
2022-08-27T14:57:25.403Z,100743.03
2022-08-27T15:02:28.617Z,100749.16
2022-08-27T15:07:31.186Z,100743.03
2022-08-27T15:12:33.653Z,100736.88
2022-08-27T15:17:36.505Z,100732.56
2022-08-27T15:22:44.181Z,100722.97
2022-08-27T15:27:46.746Z,100715.97
2022-08-27T15:32:49.383Z,100731.69
2022-08-27T15:37:52.344Z,100729.91
2022-08-27T15:43:02.149Z,100739.47
2022-08-27T15:48:04.922Z,100731.63
2022-08-27T15:53:08.841Z,100735.16
2022-08-27T15:58:11.517Z,100738.69
2022-08-27T16:03:14.866Z,100749.19
2022-08-27T16:08:17.657Z,100738.69
2022-08-27T16:13:20.055Z,100735.19
2022-08-27T16:18:26.950Z,100734.34
2022-08-27T16:23:30.501Z,100740.44
2022-08-27T16:28:32.798Z,100743.06
2022-08-27T16:33:35.186Z,100750.91
2022-08-27T16:38:42.069Z,100756.13
2022-08-27T16:43:44.899Z,100756.88
2022-08-27T16:49:05.636Z,100762.84
2022-08-27T16:54:10.769Z,100766.19
2022-08-27T16:59:13.199Z,100775.69
2022-08-27T17:04:23.954Z,100777.28
2022-08-27T17:09:31.848Z,100780.66
2022-08-27T17:14:37.930Z,100787.56
2022-08-27T17:19:40.332Z,100788.41
2022-08-27T17:24:42.695Z,100801.41
2022-08-27T17:29:44.938Z,100803.00
2022-08-27T17:34:47.267Z,100806.38
2022-08-27T17:39:49.572Z,100807.16
2022-08-27T17:44:52.385Z,100815.84
2022-08-27T17:49:54.746Z,100830.63
2022-08-27T17:54:57.125Z,100833.25
2022-08-27T18:00:04.610Z,100841.91
2022-08-27T18:05:13.336Z,100843.56
2022-08-27T18:10:20.203Z,100848.63
2022-08-27T18:15:28.502Z,100856.28
2022-08-27T18:20:32.341Z,100863.13
2022-08-27T18:25:37.982Z,100874.13
2022-08-27T18:30:43.748Z,100873.25
2022-08-27T18:35:46.215Z,100876.75
2022-08-27T18:40:50.145Z,100872.34
2022-08-27T18:45:54.338Z,100872.13
2022-08-27T18:50:58.837Z,100878.97
2022-08-27T18:56:02.203Z,100900.50
2022-08-27T19:01:11.154Z,100907.34
2022-08-27T19:06:16.138Z,100916.88
2022-08-27T19:11:18.855Z,100925.66
2022-08-27T19:16:43.353Z,100912.66
2022-08-27T19:21:50.701Z,100907.47
2022-08-27T19:26:54.030Z,100916.94
2022-08-27T19:31:56.423Z,100918.34
2022-08-27T19:37:00.622Z,100921.94
2022-08-27T19:42:04.516Z,100925.25
2022-08-27T19:47:09.779Z,100928.72
2022-08-27T19:52:12.896Z,100928.56
2022-08-27T19:57:15.322Z,100928.53
2022-08-27T20:02:17.553Z,100917.97
2022-08-27T20:07:21.821Z,100925.00
2022-08-27T20:12:24.316Z,100922.47
2022-08-27T20:17:26.705Z,100918.16
2022-08-27T20:22:31.622Z,100925.09
2022-08-27T20:27:34.531Z,100928.31
2022-08-27T20:32:36.944Z,100930.06
2022-08-27T20:37:42.266Z,100930.81
2022-08-27T20:42:44.964Z,100939.53
2022-08-27T20:47:48.760Z,100932.34
2022-08-27T20:52:52.144Z,100941.13
2022-08-27T20:58:13.289Z,100947.09
2022-08-27T21:03:15.719Z,100948.00
2022-08-27T21:08:19.680Z,100940.19
2022-08-27T21:13:22.176Z,100946.09
2022-08-27T21:18:29.254Z,100950.41
2022-08-27T21:23:34.054Z,100952.22
2022-08-27T21:28:41.620Z,100946.00
2022-08-27T21:33:43.926Z,100942.63
2022-08-27T21:38:46.280Z,100947.75
2022-08-27T21:43:49.252Z,100953.78
2022-08-27T21:48:58.806Z,100952.91
2022-08-27T21:54:01.681Z,100948.63
2022-08-27T21:59:04.087Z,100942.50
